createdAt,value
2023-04-20T00:00:36.138Z,12.70
2023-04-20T00:03:03.477Z,14.38
2023-04-20T00:05:32.073Z,12.38
2023-04-20T00:07:59.074Z,14.27
2023-04-20T00:10:27.074Z,14.48
2023-04-20T00:12:53.605Z,13.90
2023-04-20T00:15:20.439Z,12.02
2023-04-20T00:17:48.474Z,15.32
2023-04-20T00:20:15.406Z,14.00
2023-04-20T00:22:42.022Z,15.90
2023-04-20T00:25:09.308Z,13.57
2023-04-20T00:27:36.086Z,13.90
2023-04-20T00:30:02.722Z,17.10
2023-04-20T00:32:30.304Z,13.80
2023-04-20T00:34:56.953Z,13.05
2023-04-20T00:37:25.554Z,16.05
2023-04-20T00:39:52.576Z,14.55
2023-04-20T00:42:19.147Z,14.63
2023-04-20T00:44:45.633Z,17.60
2023-04-20T00:47:12.298Z,14.40
2023-04-20T00:49:39.279Z,15.32
2023-04-20T00:52:06.372Z,13.52
2023-04-20T00:54:33.145Z,16.85
2023-04-20T00:57:00.444Z,15.02
2023-04-20T00:59:27.086Z,14.65
2023-04-20T01:01:54.025Z,13.63
2023-04-20T01:04:21.041Z,16.00
2023-04-20T01:06:47.722Z,17.73
2023-04-20T01:09:14.749Z,14.68
2023-04-20T01:11:41.460Z,15.50
2023-04-20T01:14:07.988Z,17.02
2023-04-20T01:16:36.765Z,15.00
2023-04-20T01:19:03.697Z,15.65
2023-04-20T01:21:31.053Z,15.00
2023-04-20T01:23:57.769Z,15.43
2023-04-20T01:26:25.725Z,16.55
2023-04-20T01:28:52.607Z,16.35
2023-04-20T01:31:20.205Z,15.57
2023-04-20T01:33:46.910Z,19.33
2023-04-20T01:36:15.308Z,15.45
2023-04-20T01:38:42.049Z,15.27
2023-04-20T01:41:09.842Z,16.83
2023-04-20T01:43:38.065Z,17.30
2023-04-20T01:46:05.349Z,18.95
2023-04-20T01:48:33.139Z,18.40
2023-04-20T01:50:59.919Z,17.98
2023-04-20T01:53:26.967Z,17.38
2023-04-20T01:55:53.633Z,16.38
2023-04-20T01:58:20.316Z,14.35
2023-04-20T02:00:46.868Z,15.75
2023-04-20T02:03:13.728Z,18.73
2023-04-20T02:05:40.378Z,16.00
2023-04-20T02:08:06.856Z,14.60
2023-04-20T02:10:34.094Z,15.55
2023-04-20T02:13:00.721Z,17.92
2023-04-20T02:15:28.192Z,18.50
2023-04-20T02:17:58.751Z,16.05
2023-04-20T02:20:27.987Z,15.55
2023-04-20T02:22:54.733Z,16.83
2023-04-20T02:25:21.750Z,19.50
2023-04-20T02:27:48.309Z,16.00
2023-04-20T02:30:15.406Z,16.67
2023-04-20T02:32:42.211Z,19.10
2023-04-20T02:35:09.320Z,18.83
2023-04-20T02:37:35.890Z,18.92
2023-04-20T02:40:02.488Z,16.95
2023-04-20T02:42:29.073Z,17.48
2023-04-20T02:44:55.758Z,17.85
2023-04-20T02:47:23.121Z,20.55
2023-04-20T02:49:49.718Z,18.90
2023-04-20T02:52:16.355Z,18.17
2023-04-20T02:54:42.854Z,19.95
2023-04-20T02:57:11.800Z,19.05
2023-04-20T02:59:38.559Z,21.00
2023-04-20T03:02:05.635Z,18.48
2023-04-20T03:04:34.579Z,16.10
2023-04-20T03:07:01.480Z,21.55
2023-04-20T03:09:28.285Z,22.38
2023-04-20T03:11:54.887Z,19.92
2023-04-20T03:14:21.502Z,22.80
2023-04-20T03:16:48.169Z,20.38
2023-04-20T03:19:15.941Z,19.27
2023-04-20T03:21:43.026Z,19.65
2023-04-20T03:24:09.636Z,20.57
2023-04-20T03:26:36.573Z,24.50
2023-04-20T03:29:03.236Z,22.85
2023-04-20T03:31:30.364Z,23.23
2023-04-20T03:33:57.059Z,24.23
2023-04-20T03:36:24.721Z,25.13
2023-04-20T03:38:51.283Z,22.00
2023-04-20T03:41:17.887Z,24.88
2023-04-20T03:43:44.458Z,26.55
2023-04-20T03:46:11.029Z,24.02
2023-04-20T03:48:37.619Z,28.13
2023-04-20T03:51:04.630Z,25.63
2023-04-20T03:53:31.234Z,26.23
2023-04-20T03:55:57.838Z,29.00
2023-04-20T03:58:24.445Z,27.05
2023-04-20T04:00:50.965Z,26.08
2023-04-20T04:03:17.754Z,26.75
2023-04-20T04:05:44.703Z,27.08
2023-04-20T04:08:11.784Z,28.30
2023-04-20T04:10:38.520Z,30.63
2023-04-20T04:13:05.164Z,30.13
2023-04-20T04:15:31.959Z,33.03
2023-04-20T04:17:58.608Z,31.17
2023-04-20T04:20:25.158Z,25.67
2023-04-20T04:22:52.106Z,30.17
2023-04-20T04:25:18.752Z,32.47
2023-04-20T04:27:46.370Z,29.35
2023-04-20T04:30:13.568Z,30.75
2023-04-20T04:32:40.887Z,31.90
2023-04-20T04:35:08.009Z,29.50
2023-04-20T04:37:34.658Z,31.87
2023-04-20T04:40:06.351Z,30.45
2023-04-20T04:42:34.903Z,31.73
2023-04-20T04:45:04.504Z,28.58
2023-04-20T04:47:35.712Z,31.92
2023-04-20T04:50:04.547Z,34.97
2023-04-20T04:52:31.430Z,31.17
2023-04-20T04:54:58.055Z,31.88
2023-04-20T04:57:24.779Z,33.55
2023-04-20T04:59:51.481Z,35.70
2023-04-20T05:02:18.333Z,32.70
2023-04-20T05:04:46.703Z,34.97
2023-04-20T05:07:17.330Z,34.47
2023-04-20T05:09:44.847Z,33.45
2023-04-20T05:12:11.441Z,37.95
2023-04-20T05:14:38.042Z,35.20
2023-04-20T05:17:04.749Z,33.88
2023-04-20T05:19:31.437Z,39.58
2023-04-20T05:21:58.033Z,34.75
2023-04-20T05:24:24.644Z,36.30
2023-04-20T05:26:51.324Z,34.43
2023-04-20T05:29:18.516Z,29.90
2023-04-20T05:31:45.449Z,30.17
2023-04-20T05:34:12.111Z,38.58
2023-04-20T05:36:39.972Z,32.90
2023-04-20T05:39:06.746Z,34.17
2023-04-20T05:41:33.383Z,32.65
2023-04-20T05:43:59.947Z,30.67
2023-04-20T05:46:26.679Z,31.50
2023-04-20T05:48:53.360Z,34.97
2023-04-20T05:51:19.912Z,30.93
2023-04-20T05:53:46.605Z,31.95
2023-04-20T05:56:14.697Z,31.98
2023-04-20T05:58:41.491Z,32.30
2023-04-20T06:01:08.062Z,27.90
2023-04-20T06:03:34.830Z,30.50
2023-04-20T06:06:01.652Z,28.63
2023-04-20T06:08:28.212Z,30.40
2023-04-20T06:10:58.183Z,31.05
2023-04-20T06:13:24.828Z,30.35
2023-04-20T06:15:52.826Z,31.55
2023-04-20T06:18:20.341Z,29.73
2023-04-20T06:20:46.916Z,33.58
2023-04-20T06:23:13.628Z,31.20
2023-04-20T06:25:40.845Z,29.52
2023-04-20T06:28:07.575Z,29.63
2023-04-20T06:30:34.716Z,27.48
2023-04-20T06:33:02.352Z,31.23
2023-04-20T06:35:29.386Z,28.08
2023-04-20T06:37:57.453Z,29.92
2023-04-20T06:40:27.114Z,25.13
2023-04-20T06:42:53.916Z,26.80
2023-04-20T06:45:20.461Z,25.58
2023-04-20T06:47:47.033Z,24.52
2023-04-20T06:50:13.743Z,24.80
2023-04-20T06:52:41.115Z,25.53
2023-04-20T06:55:08.370Z,25.38
2023-04-20T06:57:35.339Z,24.15
2023-04-20T07:00:01.944Z,25.08
2023-04-20T07:02:28.687Z,25.05
2023-04-20T07:05:01.382Z,22.75
2023-04-20T07:07:28.034Z,26.58
2023-04-20T07:09:54.601Z,26.23
2023-04-20T07:12:21.091Z,23.27
2023-04-20T07:14:47.668Z,24.80
2023-04-20T07:17:14.322Z,23.42
2023-04-20T07:19:41.121Z,20.20
2023-04-20T07:22:07.629Z,25.77
2023-04-20T07:24:34.138Z,23.50
2023-04-20T07:27:01.375Z,18.83
2023-04-20T07:29:27.927Z,21.95
2023-04-20T07:31:54.507Z,23.52
2023-04-20T07:34:21.974Z,23.00
2023-04-20T07:36:48.521Z,21.02
2023-04-20T07:39:16.065Z,23.20
2023-04-20T07:41:43.699Z,20.13
2023-04-20T07:44:11.083Z,22.52
2023-04-20T07:46:37.586Z,19.85
2023-04-20T07:49:04.309Z,22.20
2023-04-20T07:51:32.509Z,19.67
2023-04-20T07:54:00.132Z,20.85
2023-04-20T07:56:26.666Z,20.27
2023-04-20T07:58:53.402Z,21.50
2023-04-20T08:01:24.560Z,21.02
2023-04-20T08:03:51.775Z,19.98
2023-04-20T08:06:18.286Z,20.92
2023-04-20T08:08:44.775Z,18.92
2023-04-20T08:11:12.519Z,21.08
2023-04-20T08:13:40.088Z,20.00
2023-04-20T08:16:07.502Z,21.60
2023-04-20T08:18:34.322Z,20.67
2023-04-20T08:21:00.859Z,23.95
2023-04-20T08:23:30.283Z,21.00
2023-04-20T08:25:57.044Z,23.27
2023-04-20T08:28:33.324Z,20.60
2023-04-20T08:31:00.325Z,23.30
2023-04-20T08:33:27.490Z,21.08
2023-04-20T08:35:54.023Z,20.65
2023-04-20T08:38:30.688Z,22.58
2023-04-20T08:41:00.679Z,21.65
2023-04-20T08:43:27.230Z,21.13
2023-04-20T08:45:58.072Z,19.23
2023-04-20T08:48:26.852Z,23.08
2023-04-20T08:50:54.731Z,21.48
2023-04-20T08:53:21.324Z,21.67
2023-04-20T08:55:49.759Z,20.85
2023-04-20T08:58:17.236Z,20.33
2023-04-20T09:00:49.777Z,21.02
2023-04-20T09:03:16.669Z,20.63
2023-04-20T09:05:44.929Z,21.42
2023-04-20T09:08:11.459Z,22.00
2023-04-20T09:10:44.974Z,20.38
2023-04-20T09:13:23.560Z,17.98
2023-04-20T09:15:50.295Z,20.05
2023-04-20T09:18:17.516Z,22.85
2023-04-20T09:20:44.312Z,20.15
2023-04-20T09:23:12.835Z,20.63
2023-04-20T09:25:40.980Z,18.40
2023-04-20T09:28:07.593Z,19.00
2023-04-20T09:30:38.884Z,19.35
2023-04-20T09:33:07.939Z,17.83
2023-04-20T09:35:36.138Z,18.73
2023-04-20T09:38:02.710Z,17.58
2023-04-20T09:40:30.327Z,19.20
2023-04-20T09:43:00.126Z,17.10
2023-04-20T09:45:27.509Z,14.90
2023-04-20T09:47:55.032Z,15.93
2023-04-20T09:50:27.084Z,17.27
2023-04-20T09:53:00.284Z,16.45
2023-04-20T09:55:27.584Z,18.58
2023-04-20T09:57:55.069Z,14.93
2023-04-20T10:00:22.145Z,13.75
2023-04-20T10:02:49.061Z,14.50
2023-04-20T10:05:16.796Z,15.35
2023-04-20T10:07:44.294Z,12.90
2023-04-20T10:10:15.656Z,14.68
2023-04-20T10:12:52.938Z,12.38
2023-04-20T10:15:21.623Z,12.55
2023-04-20T10:17:48.852Z,14.32
2023-04-20T10:20:27.432Z,11.55
2023-04-20T10:23:06.452Z,10.93
2023-04-20T10:25:33.004Z,12.85
2023-04-20T10:28:04.637Z,10.73
2023-04-20T10:30:34.475Z,11.30
2023-04-20T10:33:12.743Z,11.25
2023-04-20T10:35:51.126Z,10.32
2023-04-20T10:38:34.286Z,11.07
2023-04-20T10:41:12.348Z,11.23
2023-04-20T10:43:42.202Z,10.38
2023-04-20T10:46:15.689Z,10.48
2023-04-20T10:48:56.151Z,10.48
2023-04-20T10:51:23.632Z,10.88
2023-04-20T10:54:07.653Z,10.25
2023-04-20T10:56:38.970Z,11.15
2023-04-20T10:59:07.673Z,10.20
2023-04-20T11:01:34.450Z,11.30
2023-04-20T11:04:01.324Z,11.00
2023-04-20T11:06:28.556Z,13.07
2023-04-20T11:08:55.261Z,10.80
2023-04-20T11:11:30.123Z,11.95
2023-04-20T11:14:10.366Z,12.52
2023-04-20T11:16:49.650Z,13.43
2023-04-20T11:19:32.404Z,13.70
2023-04-20T11:21:59.540Z,13.85
2023-04-20T11:24:28.330Z,14.93
2023-04-20T11:26:56.099Z,15.25
2023-04-20T11:29:36.786Z,14.20
2023-04-20T11:32:08.517Z,15.77
2023-04-20T11:34:37.758Z,16.20
2023-04-20T11:37:10.027Z,15.40
2023-04-20T11:39:37.875Z,16.45
2023-04-20T11:42:05.497Z,17.23
2023-04-20T11:44:32.888Z,16.90
2023-04-20T11:46:59.758Z,15.50
2023-04-20T11:49:28.133Z,16.98
2023-04-20T11:51:55.306Z,16.63
2023-04-20T11:54:22.190Z,15.48
2023-04-20T11:56:48.908Z,16.45
2023-04-20T11:59:16.892Z,16.85
2023-04-20T12:01:43.663Z,15.68
2023-04-20T12:04:10.546Z,15.55
2023-04-20T12:06:37.578Z,15.27
2023-04-20T12:09:06.179Z,16.42
2023-04-20T12:11:32.858Z,18.27
2023-04-20T12:14:00.339Z,14.60
2023-04-20T12:16:26.978Z,13.10
2023-04-20T12:18:53.783Z,13.75
2023-04-20T12:21:20.674Z,15.40
2023-04-20T12:23:49.476Z,14.57
2023-04-20T12:26:16.689Z,17.75
2023-04-20T12:28:45.150Z,15.15
2023-04-20T12:31:12.009Z,14.30
2023-04-20T12:33:38.693Z,15.07
2023-04-20T12:36:05.982Z,14.00
2023-04-20T12:38:32.608Z,14.65
2023-04-20T12:40:59.192Z,13.85
2023-04-20T12:43:25.739Z,13.90
2023-04-20T12:45:52.310Z,14.27
2023-04-20T12:48:18.922Z,13.60
2023-04-20T12:50:45.982Z,13.10
2023-04-20T12:53:12.642Z,14.18
2023-04-20T12:55:39.341Z,13.40
2023-04-20T12:58:06.148Z,13.75
2023-04-20T13:00:32.771Z,12.35
2023-04-20T13:02:59.548Z,13.15
2023-04-20T13:05:26.232Z,13.82
2023-04-20T13:07:52.794Z,12.88
2023-04-20T13:10:19.315Z,13.15
2023-04-20T13:12:45.857Z,12.60
2023-04-20T13:15:13.129Z,13.23
2023-04-20T13:17:39.714Z,13.40
2023-04-20T13:20:07.775Z,13.07
2023-04-20T13:22:37.096Z,12.93
2023-04-20T13:25:06.301Z,13.88
2023-04-20T13:27:33.024Z,14.68
2023-04-20T13:29:59.727Z,12.43
2023-04-20T13:32:26.569Z,14.57
2023-04-20T13:34:53.139Z,14.07
2023-04-20T13:37:19.917Z,13.23
2023-04-20T13:39:46.466Z,13.18
2023-04-20T13:42:13.250Z,12.70
2023-04-20T13:44:39.816Z,11.27
2023-04-20T13:47:08.623Z,13.40
2023-04-20T13:49:35.221Z,13.07
2023-04-20T13:52:01.993Z,13.43
2023-04-20T13:54:28.554Z,10.93
2023-04-20T13:56:55.195Z,13.23
2023-04-20T13:59:21.732Z,12.00
2023-04-20T14:01:48.332Z,11.80
2023-04-20T14:04:16.848Z,11.88
2023-04-20T14:06:43.707Z,12.45
2023-04-20T14:09:10.263Z,11.85
2023-04-20T14:11:36.791Z,12.48
2023-04-20T14:14:03.632Z,12.88
2023-04-20T14:16:31.026Z,12.15
2023-04-20T14:18:57.722Z,11.27
2023-04-20T14:21:24.321Z,11.45
2023-04-20T14:23:53.391Z,11.10
2023-04-20T14:26:20.505Z,10.68
2023-04-20T14:28:47.132Z,12.40
2023-04-20T14:31:13.877Z,11.60
2023-04-20T14:33:41.606Z,15.07
2023-04-20T14:36:08.197Z,11.35
2023-04-20T14:38:34.847Z,12.65
2023-04-20T14:41:01.572Z,10.68
2023-04-20T14:43:29.123Z,12.48
2023-04-20T14:45:55.826Z,12.38
2023-04-20T14:48:24.092Z,11.63
2023-04-20T14:50:50.718Z,13.05
2023-04-20T14:53:17.213Z,12.55
2023-04-20T14:55:43.769Z,13.50
2023-04-20T14:58:10.467Z,14.30
2023-04-20T15:00:37.010Z,13.52
2023-04-20T15:03:03.951Z,12.90
2023-04-20T15:05:31.571Z,15.10
2023-04-20T15:07:58.294Z,39.33
2023-04-20T15:10:24.993Z,24.27
2023-04-20T15:12:51.699Z,19.40
2023-04-20T15:15:18.326Z,12.93
2023-04-20T15:17:46.440Z,13.27
2023-04-20T15:20:15.194Z,14.63
2023-04-20T15:22:42.117Z,12.60
2023-04-20T15:25:09.525Z,11.88
2023-04-20T15:27:36.438Z,11.85
2023-04-20T15:30:03.628Z,13.27
2023-04-20T15:32:30.404Z,11.90
2023-04-20T15:34:56.938Z,10.55
2023-04-20T15:37:23.492Z,12.57
2023-04-20T15:39:50.398Z,13.88
2023-04-20T15:42:16.856Z,13.23
2023-04-20T15:44:43.382Z,11.18
2023-04-20T15:47:10.288Z,13.57
2023-04-20T15:49:40.489Z,11.90
2023-04-20T15:52:08.477Z,10.15
2023-04-20T15:54:35.938Z,11.10
2023-04-20T15:57:03.299Z,12.52
2023-04-20T15:59:30.433Z,10.48
2023-04-20T16:01:57.391Z,12.13
2023-04-20T16:04:24.725Z,12.93
2023-04-20T16:06:51.607Z,11.75
2023-04-20T16:09:18.137Z,14.35
2023-04-20T16:11:44.584Z,11.30
2023-04-20T16:14:11.281Z,10.90
2023-04-20T16:16:37.925Z,10.82
2023-04-20T16:19:04.483Z,11.80
2023-04-20T16:21:31.451Z,11.48
2023-04-20T16:23:58.051Z,11.07
2023-04-20T16:26:26.024Z,12.18
2023-04-20T16:28:53.518Z,11.90
2023-04-20T16:31:20.327Z,12.48
2023-04-20T16:33:46.896Z,12.98
2023-04-20T16:36:16.094Z,10.32
2023-04-20T16:38:43.397Z,10.98
2023-04-20T16:41:10.539Z,12.30
2023-04-20T16:43:37.165Z,11.02
2023-04-20T16:46:03.836Z,10.55
2023-04-20T16:48:31.285Z,10.40
2023-04-20T16:50:57.871Z,11.27
2023-04-20T16:53:24.428Z,10.93
2023-04-20T16:55:51.781Z,11.07
2023-04-20T16:58:18.412Z,10.85
2023-04-20T17:00:44.978Z,10.90
2023-04-20T17:03:13.556Z,11.35
2023-04-20T17:05:42.155Z,11.35
2023-04-20T17:08:09.444Z,14.10
2023-04-20T17:10:37.848Z,11.48
2023-04-20T17:13:04.429Z,11.73
2023-04-20T17:15:31.310Z,11.02
2023-04-20T17:17:58.228Z,10.50
2023-04-20T17:20:25.104Z,10.07
2023-04-20T17:22:52.846Z,11.18
2023-04-20T17:25:19.510Z,11.25
2023-04-20T17:27:46.162Z,10.73
2023-04-20T17:30:13.660Z,10.65
2023-04-20T17:32:40.478Z,11.18
2023-04-20T17:35:07.385Z,12.65
2023-04-20T17:37:36.321Z,11.48
2023-04-20T17:40:04.936Z,9.77
2023-04-20T17:42:31.742Z,10.75
2023-04-20T17:44:58.511Z,11.82
2023-04-20T17:47:25.359Z,10.60
2023-04-20T17:49:52.028Z,11.43
2023-04-20T17:52:19.630Z,10.60
2023-04-20T17:54:46.367Z,10.80
2023-04-20T17:57:14.225Z,10.95
2023-04-20T17:59:42.315Z,10.50
2023-04-20T18:02:09.308Z,11.45
2023-04-20T18:04:36.343Z,12.13
2023-04-20T18:07:03.982Z,11.95
2023-04-20T18:09:30.773Z,10.65
2023-04-20T18:11:57.369Z,10.77
2023-04-20T18:14:24.006Z,11.30
2023-04-20T18:16:52.529Z,11.15
2023-04-20T18:19:19.494Z,13.07
2023-04-20T18:21:46.582Z,10.82
2023-04-20T18:24:13.087Z,10.60
2023-04-20T18:26:39.675Z,12.00
2023-04-20T18:29:06.263Z,12.80
2023-04-20T18:31:33.092Z,11.60
2023-04-20T18:33:59.674Z,11.95
2023-04-20T18:36:26.788Z,12.85
2023-04-20T18:38:53.994Z,11.50
2023-04-20T18:41:22.527Z,12.30
2023-04-20T18:43:52.089Z,11.82
2023-04-20T18:46:18.790Z,13.75
2023-04-20T18:48:45.486Z,10.63
2023-04-20T18:51:12.100Z,12.60
2023-04-20T18:53:38.700Z,15.45
2023-04-20T18:56:05.572Z,35.10
2023-04-20T18:58:32.316Z,18.33
2023-04-20T19:01:00.973Z,15.00
2023-04-20T19:03:27.722Z,15.38
2023-04-20T19:05:54.468Z,14.77
2023-04-20T19:08:20.976Z,11.23
2023-04-20T19:10:47.476Z,10.70
2023-04-20T19:13:17.462Z,12.90
2023-04-20T19:15:44.944Z,12.07
2023-04-20T19:18:11.631Z,10.82
2023-04-20T19:20:38.398Z,11.07
2023-04-20T19:23:04.908Z,11.68
2023-04-20T19:25:31.892Z,13.43
2023-04-20T19:27:58.778Z,11.52
2023-04-20T19:30:25.394Z,9.82
2023-04-20T19:32:51.992Z,13.07
2023-04-20T19:35:18.675Z,11.02
2023-04-20T19:37:45.316Z,12.73
2023-04-20T19:40:11.972Z,10.98
2023-04-20T19:42:40.504Z,12.25
2023-04-20T19:45:07.592Z,12.38
2023-04-20T19:47:34.245Z,13.18
2023-04-20T19:50:03.670Z,13.63
2023-04-20T19:52:30.821Z,11.35
2023-04-20T19:54:57.362Z,12.38
2023-04-20T19:57:24.062Z,12.95
2023-04-20T19:59:50.900Z,12.48
2023-04-20T20:02:17.528Z,12.50
2023-04-20T20:04:44.788Z,13.95
2023-04-20T20:07:11.644Z,12.48
2023-04-20T20:09:39.759Z,12.90
2023-04-20T20:12:08.535Z,13.15
2023-04-20T20:14:37.479Z,13.55
2023-04-20T20:17:05.190Z,13.07
2023-04-20T20:19:31.810Z,13.70
2023-04-20T20:21:58.399Z,11.80
2023-04-20T20:24:25.246Z,14.65
2023-04-20T20:26:52.305Z,15.07
2023-04-20T20:29:19.136Z,12.77
2023-04-20T20:31:45.950Z,13.50
2023-04-20T20:34:12.545Z,11.93
2023-04-20T20:36:42.405Z,13.38
2023-04-20T20:39:09.142Z,14.02
2023-04-20T20:41:36.020Z,13.00
2023-04-20T20:44:02.795Z,13.30
2023-04-20T20:46:31.536Z,14.07
2023-04-20T20:49:00.237Z,14.52
2023-04-20T20:51:27.922Z,13.43
2023-04-20T20:53:54.639Z,15.82
2023-04-20T20:56:21.542Z,13.63
2023-04-20T20:58:48.276Z,14.15
2023-04-20T21:01:15.088Z,13.90
2023-04-20T21:03:42.298Z,14.23
2023-04-20T21:06:09.000Z,16.05
2023-04-20T21:08:35.668Z,13.57
2023-04-20T21:11:02.362Z,15.82
2023-04-20T21:13:28.975Z,15.00
2023-04-20T21:15:55.632Z,13.30
2023-04-20T21:18:22.603Z,13.88
2023-04-20T21:20:49.153Z,13.13
2023-04-20T21:23:15.787Z,14.57
2023-04-20T21:25:42.368Z,13.45
2023-04-20T21:28:08.991Z,12.85
2023-04-20T21:30:35.612Z,14.13
2023-04-20T21:33:02.303Z,13.55
2023-04-20T21:35:28.902Z,13.10
2023-04-20T21:37:55.930Z,12.60
2023-04-20T21:40:25.137Z,12.98
2023-04-20T21:42:51.726Z,14.10
2023-04-20T21:45:18.433Z,14.52
2023-04-20T21:47:45.060Z,15.38
2023-04-20T21:50:11.631Z,16.08
2023-04-20T21:52:38.320Z,14.32
2023-04-20T21:55:05.369Z,13.40
2023-04-20T21:57:32.036Z,16.40
2023-04-20T21:59:58.537Z,12.90
2023-04-20T22:02:25.313Z,12.52
2023-04-20T22:04:52.409Z,13.93
2023-04-20T22:07:19.280Z,13.88
2023-04-20T22:09:45.835Z,13.50
2023-04-20T22:12:12.521Z,15.50
2023-04-20T22:14:39.128Z,12.48
2023-04-20T22:17:06.127Z,16.45
2023-04-20T22:19:33.410Z,14.02
2023-04-20T22:22:00.135Z,12.27
2023-04-20T22:24:26.717Z,12.65
2023-04-20T22:26:53.412Z,14.60
2023-04-20T22:29:20.163Z,14.82
2023-04-20T22:31:46.892Z,12.48
2023-04-20T22:34:13.700Z,15.98
2023-04-20T22:36:40.862Z,11.65
2023-04-20T22:39:07.520Z,12.05
2023-04-20T22:41:34.218Z,16.50
2023-04-20T22:44:00.918Z,11.30
2023-04-20T22:46:28.659Z,14.70
2023-04-20T22:48:56.596Z,12.30
2023-04-20T22:51:23.452Z,11.93
2023-04-20T22:53:50.217Z,13.43
2023-04-20T22:56:16.762Z,13.32
2023-04-20T22:58:43.291Z,15.23
2023-04-20T23:01:09.835Z,16.38
2023-04-20T23:03:36.670Z,13.80
2023-04-20T23:06:03.664Z,13.27
2023-04-20T23:08:30.237Z,15.35
2023-04-20T23:10:56.846Z,14.45
2023-04-20T23:13:26.036Z,15.27
2023-04-20T23:15:52.973Z,16.38
2023-04-20T23:18:19.587Z,13.80
2023-04-20T23:20:46.255Z,14.00
2023-04-20T23:23:12.771Z,14.38
2023-04-20T23:25:39.362Z,16.98
2023-04-20T23:28:05.979Z,14.93
2023-04-20T23:30:32.566Z,17.95
2023-04-20T23:32:59.135Z,16.35
2023-04-20T23:35:25.851Z,16.58
2023-04-20T23:37:52.503Z,15.63
2023-04-20T23:40:19.416Z,14.95
2023-04-20T23:42:45.950Z,15.67
2023-04-20T23:45:12.510Z,15.48
2023-04-20T23:47:39.157Z,16.27
2023-04-20T23:50:06.633Z,15.48
2023-04-20T23:52:33.317Z,15.80
2023-04-20T23:54:59.781Z,14.73
2023-04-20T23:57:26.388Z,14.27
2023-04-20T23:59:53.540Z,18.88
